sensor_id;sensor_type;location;lat;lon;timestamp;P1;durP1;ratioP1;P2;durP2;ratioP2
30763;SDS011;17497;51.476;7.770;2023-08-21T00:00:24;0.30;;;0.30;;
30763;SDS011;17497;51.476;7.770;2023-08-21T00:02:50;0.30;;;0.30;;
30763;SDS011;17497;51.476;7.770;2023-08-21T00:05:17;0.30;;;0.30;;
30763;SDS011;17497;51.476;7.770;2023-08-21T00:07:44;0.32;;;0.32;;
30763;SDS011;17497;51.476;7.770;2023-08-21T00:10:12;0.30;;;0.30;;
30763;SDS011;17497;51.476;7.770;2023-08-21T00:15:07;0.20;;;0.20;;
30763;SDS011;17497;51.476;7.770;2023-08-21T00:17:54;0.30;;;0.30;;
30763;SDS011;17497;51.476;7.770;2023-08-21T00:20:21;0.30;;;0.30;;
30763;SDS011;17497;51.476;7.770;2023-08-21T00:22:48;0.30;;;0.30;;
30763;SDS011;17497;51.476;7.770;2023-08-21T00:25:15;0.30;;;0.30;;
30763;SDS011;17497;51.476;7.770;2023-08-21T00:27:42;0.30;;;0.30;;
30763;SDS011;17497;51.476;7.770;2023-08-21T00:30:09;0.30;;;0.30;;
30763;SDS011;17497;51.476;7.770;2023-08-21T00:35:04;0.30;;;0.30;;
30763;SDS011;17497;51.476;7.770;2023-08-21T00:37:31;0.32;;;0.32;;
30763;SDS011;17497;51.476;7.770;2023-08-21T00:39:58;0.30;;;0.30;;
30763;SDS011;17497;51.476;7.770;2023-08-21T00:42:25;0.38;;;0.38;;
30763;SDS011;17497;51.476;7.770;2023-08-21T00:44:52;0.30;;;0.30;;
30763;SDS011;17497;51.476;7.770;2023-08-21T00:47:18;0.30;;;0.30;;
30763;SDS011;17497;51.476;7.770;2023-08-21T00:49:48;0.30;;;0.30;;
30763;SDS011;17497;51.476;7.770;2023-08-21T00:52:16;0.30;;;0.30;;
30763;SDS011;17497;51.476;7.770;2023-08-21T00:54:43;0.28;;;0.28;;
30763;SDS011;17497;51.476;7.770;2023-08-21T00:57:10;0.30;;;0.30;;
30763;SDS011;17497;51.476;7.770;2023-08-21T00:59:38;0.30;;;0.30;;
30763;SDS011;17497;51.476;7.770;2023-08-21T01:02:06;0.35;;;0.35;;
30763;SDS011;17497;51.476;7.770;2023-08-21T01:04:33;0.30;;;0.30;;
30763;SDS011;17497;51.476;7.770;2023-08-21T01:06:59;0.32;;;0.32;;
30763;SDS011;17497;51.476;7.770;2023-08-21T01:09:31;0.30;;;0.30;;
30763;SDS011;17497;51.476;7.770;2023-08-21T01:12:19;0.40;;;0.40;;
30763;SDS011;17497;51.476;7.770;2023-08-21T01:14:58;0.30;;;0.30;;
30763;SDS011;17497;51.476;7.770;2023-08-21T01:17:31;0.30;;;0.30;;
30763;SDS011;17497;51.476;7.770;2023-08-21T01:20:01;0.25;;;0.25;;
30763;SDS011;17497;51.476;7.770;2023-08-21T01:25:06;0.30;;;0.30;;
30763;SDS011;17497;51.476;7.770;2023-08-21T01:27:35;0.30;;;0.30;;
30763;SDS011;17497;51.476;7.770;2023-08-21T01:30:02;0.30;;;0.30;;
30763;SDS011;17497;51.476;7.770;2023-08-21T01:35:02;0.30;;;0.30;;
30763;SDS011;17497;51.476;7.770;2023-08-21T01:37:31;0.30;;;0.30;;
30763;SDS011;17497;51.476;7.770;2023-08-21T01:39:59;0.25;;;0.25;;
30763;SDS011;17497;51.476;7.770;2023-08-21T01:42:26;0.30;;;0.30;;
30763;SDS011;17497;51.476;7.770;2023-08-21T01:44:53;0.30;;;0.30;;
30763;SDS011;17497;51.476;7.770;2023-08-21T01:47:20;0.30;;;0.30;;
30763;SDS011;17497;51.476;7.770;2023-08-21T01:49:47;0.30;;;0.30;;
30763;SDS011;17497;51.476;7.770;2023-08-21T01:52:18;0.30;;;0.30;;
30763;SDS011;17497;51.476;7.770;2023-08-21T01:54:47;0.30;;;0.30;;
30763;SDS011;17497;51.476;7.770;2023-08-21T01:57:15;0.30;;;0.30;;
30763;SDS011;17497;51.476;7.770;2023-08-21T01:59:42;0.30;;;0.30;;
30763;SDS011;17497;51.476;7.770;2023-08-21T02:02:12;0.32;;;0.32;;
30763;SDS011;17497;51.476;7.770;2023-08-21T02:04:39;0.30;;;0.30;;
30763;SDS011;17497;51.476;7.770;2023-08-21T02:07:05;0.30;;;0.30;;
30763;SDS011;17497;51.476;7.770;2023-08-21T02:12:00;0.30;;;0.30;;
30763;SDS011;17497;51.476;7.770;2023-08-21T02:14:27;0.30;;;0.30;;
30763;SDS011;17497;51.476;7.770;2023-08-21T02:16:54;0.40;;;0.40;;
30763;SDS011;17497;51.476;7.770;2023-08-21T02:19:21;0.30;;;0.30;;
30763;SDS011;17497;51.476;7.770;2023-08-21T02:21:48;0.30;;;0.30;;
30763;SDS011;17497;51.476;7.770;2023-08-21T02:24:14;0.30;;;0.30;;
30763;SDS011;17497;51.476;7.770;2023-08-21T02:26:42;0.30;;;0.30;;
30763;SDS011;17497;51.476;7.770;2023-08-21T02:29:09;0.30;;;0.30;;
30763;SDS011;17497;51.476;7.770;2023-08-21T02:31:35;0.30;;;0.30;;
30763;SDS011;17497;51.476;7.770;2023-08-21T02:34:02;0.30;;;0.30;;
30763;SDS011;17497;51.476;7.770;2023-08-21T02:36:29;0.40;;;0.40;;
30763;SDS011;17497;51.476;7.770;2023-08-21T02:38:56;0.30;;;0.30;;
30763;SDS011;17497;51.476;7.770;2023-08-21T02:41:22;0.40;;;0.40;;
30763;SDS011;17497;51.476;7.770;2023-08-21T02:43:49;0.30;;;0.30;;
30763;SDS011;17497;51.476;7.770;2023-08-21T02:46:19;0.40;;;0.40;;
30763;SDS011;17497;51.476;7.770;2023-08-21T02:48:46;0.30;;;0.30;;
30763;SDS011;17497;51.476;7.770;2023-08-21T02:51:13;0.30;;;0.30;;
30763;SDS011;17497;51.476;7.770;2023-08-21T02:53:40;0.30;;;0.30;;
30763;SDS011;17497;51.476;7.770;2023-08-21T02:56:06;0.30;;;0.30;;
30763;SDS011;17497;51.476;7.770;2023-08-21T02:58:33;0.30;;;0.30;;
30763;SDS011;17497;51.476;7.770;2023-08-21T03:01:00;0.30;;;0.30;;
30763;SDS011;17497;51.476;7.770;2023-08-21T03:03:27;0.30;;;0.30;;
30763;SDS011;17497;51.476;7.770;2023-08-21T03:05:53;0.40;;;0.40;;
30763;SDS011;17497;51.476;7.770;2023-08-21T03:08:21;0.30;;;0.30;;
30763;SDS011;17497;51.476;7.770;2023-08-21T03:10:47;0.30;;;0.30;;
30763;SDS011;17497;51.476;7.770;2023-08-21T03:13:14;0.30;;;0.30;;
30763;SDS011;17497;51.476;7.770;2023-08-21T03:15:45;0.30;;;0.30;;
30763;SDS011;17497;51.476;7.770;2023-08-21T03:18:12;0.40;;;0.40;;
30763;SDS011;17497;51.476;7.770;2023-08-21T03:20:43;0.30;;;0.30;;
30763;SDS011;17497;51.476;7.770;2023-08-21T03:23:11;0.35;;;0.35;;
30763;SDS011;17497;51.476;7.770;2023-08-21T03:25:38;0.30;;;0.30;;
30763;SDS011;17497;51.476;7.770;2023-08-21T03:28:05;0.30;;;0.30;;
30763;SDS011;17497;51.476;7.770;2023-08-21T03:30:32;0.30;;;0.30;;
30763;SDS011;17497;51.476;7.770;2023-08-21T03:32:58;0.30;;;0.30;;
30763;SDS011;17497;51.476;7.770;2023-08-21T03:35:25;0.30;;;0.30;;
30763;SDS011;17497;51.476;7.770;2023-08-21T03:37:52;0.30;;;0.30;;
30763;SDS011;17497;51.476;7.770;2023-08-21T03:40:19;0.40;;;0.40;;
30763;SDS011;17497;51.476;7.770;2023-08-21T03:42:46;0.30;;;0.30;;
30763;SDS011;17497;51.476;7.770;2023-08-21T03:45:13;0.30;;;0.30;;
30763;SDS011;17497;51.476;7.770;2023-08-21T03:47:40;0.30;;;0.30;;
30763;SDS011;17497;51.476;7.770;2023-08-21T03:50:07;0.38;;;0.38;;
30763;SDS011;17497;51.476;7.770;2023-08-21T03:52:34;0.30;;;0.30;;
30763;SDS011;17497;51.476;7.770;2023-08-21T03:55:01;0.30;;;0.30;;
30763;SDS011;17497;51.476;7.770;2023-08-21T03:57:28;0.30;;;0.30;;
30763;SDS011;17497;51.476;7.770;2023-08-21T03:59:54;0.30;;;0.30;;
30763;SDS011;17497;51.476;7.770;2023-08-21T04:02:21;0.35;;;0.35;;
30763;SDS011;17497;51.476;7.770;2023-08-21T04:04:51;0.30;;;0.30;;
30763;SDS011;17497;51.476;7.770;2023-08-21T04:07:18;0.30;;;0.30;;
30763;SDS011;17497;51.476;7.770;2023-08-21T04:09:45;0.40;;;0.40;;
30763;SDS011;17497;51.476;7.770;2023-08-21T04:12:12;0.30;;;0.30;;
30763;SDS011;17497;51.476;7.770;2023-08-21T04:14:39;0.30;;;0.30;;
30763;SDS011;17497;51.476;7.770;2023-08-21T04:17:05;0.30;;;0.30;;
30763;SDS011;17497;51.476;7.770;2023-08-21T04:19:32;0.30;;;0.30;;
30763;SDS011;17497;51.476;7.770;2023-08-21T04:22:00;0.30;;;0.30;;
30763;SDS011;17497;51.476;7.770;2023-08-21T04:24:27;0.30;;;0.30;;
30763;SDS011;17497;51.476;7.770;2023-08-21T04:26:54;0.40;;;0.40;;
30763;SDS011;17497;51.476;7.770;2023-08-21T04:29:20;0.30;;;0.30;;
30763;SDS011;17497;51.476;7.770;2023-08-21T04:31:47;0.40;;;0.40;;
30763;SDS011;17497;51.476;7.770;2023-08-21T04:34:14;0.33;;;0.33;;
30763;SDS011;17497;51.476;7.770;2023-08-21T04:36:41;0.30;;;0.30;;
30763;SDS011;17497;51.476;7.770;2023-08-21T04:39:08;0.30;;;0.30;;
30763;SDS011;17497;51.476;7.770;2023-08-21T04:41:35;0.30;;;0.30;;
30763;SDS011;17497;51.476;7.770;2023-08-21T04:44:01;0.30;;;0.30;;
30763;SDS011;17497;51.476;7.770;2023-08-21T04:46:29;0.30;;;0.30;;
30763;SDS011;17497;51.476;7.770;2023-08-21T04:48:56;0.28;;;0.28;;
30763;SDS011;17497;51.476;7.770;2023-08-21T04:51:23;0.30;;;0.30;;
30763;SDS011;17497;51.476;7.770;2023-08-21T04:53:50;0.30;;;0.30;;
30763;SDS011;17497;51.476;7.770;2023-08-21T04:56:17;0.30;;;0.30;;
30763;SDS011;17497;51.476;7.770;2023-08-21T04:58:43;0.32;;;0.32;;
30763;SDS011;17497;51.476;7.770;2023-08-21T05:01:10;0.32;;;0.32;;
30763;SDS011;17497;51.476;7.770;2023-08-21T05:03:38;0.40;;;0.40;;
30763;SDS011;17497;51.476;7.770;2023-08-21T05:06:05;0.30;;;0.30;;
30763;SDS011;17497;51.476;7.770;2023-08-21T05:08:33;0.38;;;0.38;;
30763;SDS011;17497;51.476;7.770;2023-08-21T05:11:00;0.35;;;0.35;;
30763;SDS011;17497;51.476;7.770;2023-08-21T05:13:27;0.30;;;0.30;;
30763;SDS011;17497;51.476;7.770;2023-08-21T05:15:55;0.30;;;0.30;;
30763;SDS011;17497;51.476;7.770;2023-08-21T05:18:23;0.30;;;0.30;;
30763;SDS011;17497;51.476;7.770;2023-08-21T05:20:52;0.35;;;0.35;;
30763;SDS011;17497;51.476;7.770;2023-08-21T05:23:20;0.30;;;0.30;;
30763;SDS011;17497;51.476;7.770;2023-08-21T05:25:50;0.30;;;0.30;;
30763;SDS011;17497;51.476;7.770;2023-08-21T05:28:19;0.30;;;0.30;;
30763;SDS011;17497;51.476;7.770;2023-08-21T05:30:46;0.30;;;0.30;;
30763;SDS011;17497;51.476;7.770;2023-08-21T05:33:15;0.30;;;0.30;;
30763;SDS011;17497;51.476;7.770;2023-08-21T05:35:42;0.30;;;0.30;;
30763;SDS011;17497;51.476;7.770;2023-08-21T05:38:08;0.30;;;0.30;;
30763;SDS011;17497;51.476;7.770;2023-08-21T05:40:35;0.40;;;0.40;;
30763;SDS011;17497;51.476;7.770;2023-08-21T05:43:02;0.30;;;0.30;;
30763;SDS011;17497;51.476;7.770;2023-08-21T05:45:30;0.40;;;0.40;;
30763;SDS011;17497;51.476;7.770;2023-08-21T05:47:56;0.30;;;0.30;;
30763;SDS011;17497;51.476;7.770;2023-08-21T05:50:23;0.30;;;0.30;;
30763;SDS011;17497;51.476;7.770;2023-08-21T05:52:50;0.40;;;0.40;;
30763;SDS011;17497;51.476;7.770;2023-08-21T05:55:17;0.30;;;0.30;;
30763;SDS011;17497;51.476;7.770;2023-08-21T05:57:44;0.30;;;0.30;;
30763;SDS011;17497;51.476;7.770;2023-08-21T06:00:12;0.30;;;0.30;;
30763;SDS011;17497;51.476;7.770;2023-08-21T06:02:39;0.40;;;0.40;;
30763;SDS011;17497;51.476;7.770;2023-08-21T06:05:06;0.30;;;0.30;;
30763;SDS011;17497;51.476;7.770;2023-08-21T06:07:33;0.40;;;0.40;;
30763;SDS011;17497;51.476;7.770;2023-08-21T06:10:00;0.30;;;0.30;;
30763;SDS011;17497;51.476;7.770;2023-08-21T06:12:27;0.30;;;0.30;;
30763;SDS011;17497;51.476;7.770;2023-08-21T06:14:53;0.30;;;0.30;;
30763;SDS011;17497;51.476;7.770;2023-08-21T06:17:20;0.30;;;0.30;;
30763;SDS011;17497;51.476;7.770;2023-08-21T06:19:47;0.30;;;0.30;;
30763;SDS011;17497;51.476;7.770;2023-08-21T06:22:14;0.30;;;0.30;;
30763;SDS011;17497;51.476;7.770;2023-08-21T06:24:41;0.30;;;0.30;;
30763;SDS011;17497;51.476;7.770;2023-08-21T06:27:08;0.30;;;0.30;;
30763;SDS011;17497;51.476;7.770;2023-08-21T06:29:35;0.30;;;0.30;;
30763;SDS011;17497;51.476;7.770;2023-08-21T06:32:03;0.25;;;0.25;;
30763;SDS011;17497;51.476;7.770;2023-08-21T06:34:30;0.30;;;0.30;;
30763;SDS011;17497;51.476;7.770;2023-08-21T06:36:57;0.30;;;0.30;;
30763;SDS011;17497;51.476;7.770;2023-08-21T06:39:25;0.20;;;0.20;;
30763;SDS011;17497;51.476;7.770;2023-08-21T06:41:51;0.30;;;0.30;;
30763;SDS011;17497;51.476;7.770;2023-08-21T06:44:18;0.30;;;0.30;;
30763;SDS011;17497;51.476;7.770;2023-08-21T06:46:46;0.30;;;0.30;;
30763;SDS011;17497;51.476;7.770;2023-08-21T06:49:13;0.30;;;0.30;;
30763;SDS011;17497;51.476;7.770;2023-08-21T06:51:40;0.20;;;0.20;;
30763;SDS011;17497;51.476;7.770;2023-08-21T06:54:07;0.30;;;0.30;;
30763;SDS011;17497;51.476;7.770;2023-08-21T06:56:34;0.30;;;0.30;;
30763;SDS011;17497;51.476;7.770;2023-08-21T06:59:00;0.30;;;0.30;;
30763;SDS011;17497;51.476;7.770;2023-08-21T07:01:28;0.30;;;0.30;;
30763;SDS011;17497;51.476;7.770;2023-08-21T07:03:55;0.33;;;0.33;;
30763;SDS011;17497;51.476;7.770;2023-08-21T07:06:21;0.30;;;0.30;;
30763;SDS011;17497;51.476;7.770;2023-08-21T07:08:48;0.22;;;0.22;;
30763;SDS011;17497;51.476;7.770;2023-08-21T07:11:15;0.30;;;0.30;;
30763;SDS011;17497;51.476;7.770;2023-08-21T07:13:43;0.25;;;0.25;;
30763;SDS011;17497;51.476;7.770;2023-08-21T07:16:10;0.30;;;0.30;;
30763;SDS011;17497;51.476;7.770;2023-08-21T07:18:39;0.30;;;0.30;;
30763;SDS011;17497;51.476;7.770;2023-08-21T07:21:06;0.30;;;0.30;;
30763;SDS011;17497;51.476;7.770;2023-08-21T07:23:52;0.20;;;0.20;;
30763;SDS011;17497;51.476;7.770;2023-08-21T07:26:18;0.22;;;0.22;;
30763;SDS011;17497;51.476;7.770;2023-08-21T07:28:45;0.30;;;0.30;;
30763;SDS011;17497;51.476;7.770;2023-08-21T07:31:12;0.30;;;0.30;;
30763;SDS011;17497;51.476;7.770;2023-08-21T07:33:39;0.20;;;0.20;;
30763;SDS011;17497;51.476;7.770;2023-08-21T07:36:06;0.30;;;0.30;;
30763;SDS011;17497;51.476;7.770;2023-08-21T07:38:33;0.20;;;0.20;;
30763;SDS011;17497;51.476;7.770;2023-08-21T07:43:37;0.30;;;0.30;;
30763;SDS011;17497;51.476;7.770;2023-08-21T07:46:05;0.20;;;0.20;;
30763;SDS011;17497;51.476;7.770;2023-08-21T07:48:33;0.30;;;0.30;;
30763;SDS011;17497;51.476;7.770;2023-08-21T07:51:01;0.30;;;0.30;;
30763;SDS011;17497;51.476;7.770;2023-08-21T07:53:28;0.30;;;0.30;;
30763;SDS011;17497;51.476;7.770;2023-08-21T07:56:01;0.30;;;0.30;;
30763;SDS011;17497;51.476;7.770;2023-08-21T07:58:30;0.20;;;0.20;;
30763;SDS011;17497;51.476;7.770;2023-08-21T08:00:58;0.30;;;0.30;;
30763;SDS011;17497;51.476;7.770;2023-08-21T08:03:25;0.30;;;0.30;;
30763;SDS011;17497;51.476;7.770;2023-08-21T08:05:52;0.30;;;0.30;;
30763;SDS011;17497;51.476;7.770;2023-08-21T08:08:21;0.30;;;0.30;;
30763;SDS011;17497;51.476;7.770;2023-08-21T08:10:48;0.20;;;0.20;;
30763;SDS011;17497;51.476;7.770;2023-08-21T08:13:14;0.20;;;0.20;;
30763;SDS011;17497;51.476;7.770;2023-08-21T08:15:41;0.30;;;0.30;;
30763;SDS011;17497;51.476;7.770;2023-08-21T08:18:11;0.20;;;0.20;;
30763;SDS011;17497;51.476;7.770;2023-08-21T08:20:38;0.20;;;0.20;;
30763;SDS011;17497;51.476;7.770;2023-08-21T08:23:06;0.30;;;0.30;;
30763;SDS011;17497;51.476;7.770;2023-08-21T08:25:33;0.30;;;0.30;;
30763;SDS011;17497;51.476;7.770;2023-08-21T08:28:00;0.30;;;0.30;;
30763;SDS011;17497;51.476;7.770;2023-08-21T08:30:36;0.30;;;0.30;;
30763;SDS011;17497;51.476;7.770;2023-08-21T08:33:06;0.30;;;0.30;;
30763;SDS011;17497;51.476;7.770;2023-08-21T08:35:33;0.30;;;0.30;;
30763;SDS011;17497;51.476;7.770;2023-08-21T08:38:00;0.30;;;0.30;;
30763;SDS011;17497;51.476;7.770;2023-08-21T08:40:31;0.25;;;0.25;;
30763;SDS011;17497;51.476;7.770;2023-08-21T08:42:58;0.20;;;0.20;;
30763;SDS011;17497;51.476;7.770;2023-08-21T08:45:28;0.20;;;0.20;;
30763;SDS011;17497;51.476;7.770;2023-08-21T08:48:01;0.20;;;0.20;;
30763;SDS011;17497;51.476;7.770;2023-08-21T08:50:29;0.20;;;0.20;;
30763;SDS011;17497;51.476;7.770;2023-08-21T08:52:58;0.22;;;0.22;;
30763;SDS011;17497;51.476;7.770;2023-08-21T08:55:40;0.20;;;0.20;;
30763;SDS011;17497;51.476;7.770;2023-08-21T08:58:07;0.30;;;0.30;;
30763;SDS011;17497;51.476;7.770;2023-08-21T09:00:33;0.20;;;0.20;;
30763;SDS011;17497;51.476;7.770;2023-08-21T09:03:00;0.30;;;0.30;;
30763;SDS011;17497;51.476;7.770;2023-08-21T09:05:27;0.20;;;0.20;;
30763;SDS011;17497;51.476;7.770;2023-08-21T09:08:09;0.22;;;0.22;;
30763;SDS011;17497;51.476;7.770;2023-08-21T09:10:37;0.20;;;0.20;;
30763;SDS011;17497;51.476;7.770;2023-08-21T09:13:23;0.30;;;0.30;;
30763;SDS011;17497;51.476;7.770;2023-08-21T09:15:55;0.20;;;0.20;;
30763;SDS011;17497;51.476;7.770;2023-08-21T09:18:22;0.30;;;0.30;;
30763;SDS011;17497;51.476;7.770;2023-08-21T09:20:49;0.20;;;0.20;;
30763;SDS011;17497;51.476;7.770;2023-08-21T09:23:16;0.30;;;0.30;;
30763;SDS011;17497;51.476;7.770;2023-08-21T09:25:45;0.20;;;0.20;;
30763;SDS011;17497;51.476;7.770;2023-08-21T09:28:19;0.30;;;0.30;;
30763;SDS011;17497;51.476;7.770;2023-08-21T09:30:50;0.20;;;0.20;;
30763;SDS011;17497;51.476;7.770;2023-08-21T09:33:22;0.28;;;0.28;;
30763;SDS011;17497;51.476;7.770;2023-08-21T09:35:53;0.20;;;0.20;;
30763;SDS011;17497;51.476;7.770;2023-08-21T09:38:21;0.30;;;0.30;;
30763;SDS011;17497;51.476;7.770;2023-08-21T09:40:52;0.30;;;0.30;;
30763;SDS011;17497;51.476;7.770;2023-08-21T09:43:22;0.20;;;0.20;;
30763;SDS011;17497;51.476;7.770;2023-08-21T09:45:51;0.20;;;0.20;;
30763;SDS011;17497;51.476;7.770;2023-08-21T09:48:25;0.20;;;0.20;;
30763;SDS011;17497;51.476;7.770;2023-08-21T09:50:56;0.30;;;0.30;;
30763;SDS011;17497;51.476;7.770;2023-08-21T09:53:34;0.30;;;0.30;;
30763;SDS011;17497;51.476;7.770;2023-08-21T09:56:01;0.28;;;0.28;;
30763;SDS011;17497;51.476;7.770;2023-08-21T09:58:31;0.28;;;0.28;;
30763;SDS011;17497;51.476;7.770;2023-08-21T10:00:58;0.20;;;0.20;;
30763;SDS011;17497;51.476;7.770;2023-08-21T10:03:26;0.20;;;0.20;;
30763;SDS011;17497;51.476;7.770;2023-08-21T10:05:55;0.20;;;0.20;;
30763;SDS011;17497;51.476;7.770;2023-08-21T10:08:24;0.30;;;0.30;;
30763;SDS011;17497;51.476;7.770;2023-08-21T10:10:52;0.20;;;0.20;;
30763;SDS011;17497;51.476;7.770;2023-08-21T10:13:20;0.20;;;0.20;;
30763;SDS011;17497;51.476;7.770;2023-08-21T10:15:47;0.20;;;0.20;;
30763;SDS011;17497;51.476;7.770;2023-08-21T10:23:46;0.20;;;0.20;;
30763;SDS011;17497;51.476;7.770;2023-08-21T10:26:20;0.30;;;0.30;;
30763;SDS011;17497;51.476;7.770;2023-08-21T10:33:54;0.20;;;0.20;;
30763;SDS011;17497;51.476;7.770;2023-08-21T10:39:29;0.30;;;0.30;;
30763;SDS011;17497;51.476;7.770;2023-08-21T10:42:00;0.28;;;0.28;;
30763;SDS011;17497;51.476;7.770;2023-08-21T10:47:21;0.20;;;0.20;;
30763;SDS011;17497;51.476;7.770;2023-08-21T10:49:53;0.20;;;0.20;;
30763;SDS011;17497;51.476;7.770;2023-08-21T10:52:26;0.22;;;0.22;;
30763;SDS011;17497;51.476;7.770;2023-08-21T10:54:55;0.20;;;0.20;;
30763;SDS011;17497;51.476;7.770;2023-08-21T10:57:28;0.20;;;0.20;;
30763;SDS011;17497;51.476;7.770;2023-08-21T11:00:12;0.20;;;0.20;;
30763;SDS011;17497;51.476;7.770;2023-08-21T11:02:45;0.20;;;0.20;;
30763;SDS011;17497;51.476;7.770;2023-08-21T11:05:16;0.20;;;0.20;;
30763;SDS011;17497;51.476;7.770;2023-08-21T11:07:44;0.20;;;0.20;;
30763;SDS011;17497;51.476;7.770;2023-08-21T11:10:33;0.20;;;0.20;;
30763;SDS011;17497;51.476;7.770;2023-08-21T11:13:00;0.20;;;0.20;;
30763;SDS011;17497;51.476;7.770;2023-08-21T11:15:27;0.20;;;0.20;;
30763;SDS011;17497;51.476;7.770;2023-08-21T11:17:56;0.20;;;0.20;;
30763;SDS011;17497;51.476;7.770;2023-08-21T11:20:29;0.20;;;0.20;;
30763;SDS011;17497;51.476;7.770;2023-08-21T11:23:00;0.20;;;0.20;;
30763;SDS011;17497;51.476;7.770;2023-08-21T11:25:32;0.20;;;0.20;;
30763;SDS011;17497;51.476;7.770;2023-08-21T11:28:00;0.20;;;0.20;;
30763;SDS011;17497;51.476;7.770;2023-08-21T11:30:30;0.20;;;0.20;;
30763;SDS011;17497;51.476;7.770;2023-08-21T11:33:05;0.20;;;0.20;;
30763;SDS011;17497;51.476;7.770;2023-08-21T11:35:36;0.20;;;0.20;;
30763;SDS011;17497;51.476;7.770;2023-08-21T11:38:12;0.20;;;0.20;;
30763;SDS011;17497;51.476;7.770;2023-08-21T11:40:58;0.20;;;0.20;;
30763;SDS011;17497;51.476;7.770;2023-08-21T11:43:36;0.20;;;0.20;;
30763;SDS011;17497;51.476;7.770;2023-08-21T11:46:07;0.20;;;0.20;;
30763;SDS011;17497;51.476;7.770;2023-08-21T11:48:40;0.20;;;0.20;;
30763;SDS011;17497;51.476;7.770;2023-08-21T11:51:08;0.20;;;0.20;;
30763;SDS011;17497;51.476;7.770;2023-08-21T11:53:41;0.10;;;0.10;;
30763;SDS011;17497;51.476;7.770;2023-08-21T11:56:14;0.20;;;0.20;;
30763;SDS011;17497;51.476;7.770;2023-08-21T11:58:46;0.20;;;0.20;;
30763;SDS011;17497;51.476;7.770;2023-08-21T12:01:17;0.20;;;0.20;;
30763;SDS011;17497;51.476;7.770;2023-08-21T12:06:26;0.20;;;0.20;;
30763;SDS011;17497;51.476;7.770;2023-08-21T12:08:58;0.20;;;0.20;;
30763;SDS011;17497;51.476;7.770;2023-08-21T12:11:29;0.20;;;0.20;;
30763;SDS011;17497;51.476;7.770;2023-08-21T12:13:56;0.20;;;0.20;;
30763;SDS011;17497;51.476;7.770;2023-08-21T12:18:52;0.20;;;0.20;;
30763;SDS011;17497;51.476;7.770;2023-08-21T12:21:18;0.10;;;0.10;;
30763;SDS011;17497;51.476;7.770;2023-08-21T12:23:45;0.20;;;0.20;;
30763;SDS011;17497;51.476;7.770;2023-08-21T12:26:12;0.20;;;0.20;;
30763;SDS011;17497;51.476;7.770;2023-08-21T12:28:44;0.10;;;0.10;;
30763;SDS011;17497;51.476;7.770;2023-08-21T12:31:11;0.20;;;0.20;;
30763;SDS011;17497;51.476;7.770;2023-08-21T12:33:41;0.20;;;0.20;;
30763;SDS011;17497;51.476;7.770;2023-08-21T12:38:38;0.20;;;0.20;;
30763;SDS011;17497;51.476;7.770;2023-08-21T12:41:24;0.20;;;0.20;;
30763;SDS011;17497;51.476;7.770;2023-08-21T12:44:03;0.20;;;0.20;;
30763;SDS011;17497;51.476;7.770;2023-08-21T12:47:01;0.20;;;0.20;;
30763;SDS011;17497;51.476;7.770;2023-08-21T12:49:29;0.20;;;0.20;;
30763;SDS011;17497;51.476;7.770;2023-08-21T12:51:55;0.20;;;0.20;;
30763;SDS011;17497;51.476;7.770;2023-08-21T12:54:22;0.20;;;0.20;;
30763;SDS011;17497;51.476;7.770;2023-08-21T12:56:49;0.10;;;0.10;;
30763;SDS011;17497;51.476;7.770;2023-08-21T12:59:16;0.20;;;0.20;;
30763;SDS011;17497;51.476;7.770;2023-08-21T13:01:48;0.20;;;0.20;;
30763;SDS011;17497;51.476;7.770;2023-08-21T13:04:15;0.20;;;0.20;;
30763;SDS011;17497;51.476;7.770;2023-08-21T13:06:58;0.20;;;0.20;;
30763;SDS011;17497;51.476;7.770;2023-08-21T13:09:25;0.20;;;0.20;;
30763;SDS011;17497;51.476;7.770;2023-08-21T13:11:53;0.10;;;0.10;;
30763;SDS011;17497;51.476;7.770;2023-08-21T13:14:21;0.10;;;0.10;;
30763;SDS011;17497;51.476;7.770;2023-08-21T13:16:48;0.20;;;0.20;;
30763;SDS011;17497;51.476;7.770;2023-08-21T13:25:30;0.20;;;0.20;;
30763;SDS011;17497;51.476;7.770;2023-08-21T13:27:57;0.13;;;0.13;;
30763;SDS011;17497;51.476;7.770;2023-08-21T13:30:27;0.17;;;0.17;;
30763;SDS011;17497;51.476;7.770;2023-08-21T13:32:58;0.20;;;0.20;;
30763;SDS011;17497;51.476;7.770;2023-08-21T13:35:25;0.10;;;0.10;;
30763;SDS011;17497;51.476;7.770;2023-08-21T13:37:56;0.20;;;0.20;;
30763;SDS011;17497;51.476;7.770;2023-08-21T13:40:23;0.10;;;0.10;;
30763;SDS011;17497;51.476;7.770;2023-08-21T13:42:51;0.20;;;0.20;;
30763;SDS011;17497;51.476;7.770;2023-08-21T13:45:19;0.10;;;0.10;;
30763;SDS011;17497;51.476;7.770;2023-08-21T13:47:47;0.10;;;0.10;;
30763;SDS011;17497;51.476;7.770;2023-08-21T13:50:16;0.20;;;0.20;;
30763;SDS011;17497;51.476;7.770;2023-08-21T13:52:48;0.20;;;0.20;;
30763;SDS011;17497;51.476;7.770;2023-08-21T13:55:15;0.20;;;0.20;;
30763;SDS011;17497;51.476;7.770;2023-08-21T13:57:44;0.20;;;0.20;;
30763;SDS011;17497;51.476;7.770;2023-08-21T14:00:11;0.20;;;0.20;;
30763;SDS011;17497;51.476;7.770;2023-08-21T14:02:42;0.17;;;0.17;;
30763;SDS011;17497;51.476;7.770;2023-08-21T14:05:12;0.20;;;0.20;;
30763;SDS011;17497;51.476;7.770;2023-08-21T14:07:45;0.20;;;0.20;;
30763;SDS011;17497;51.476;7.770;2023-08-21T14:10:12;0.20;;;0.20;;
30763;SDS011;17497;51.476;7.770;2023-08-21T14:12:41;0.10;;;0.10;;
30763;SDS011;17497;51.476;7.770;2023-08-21T14:15:08;0.20;;;0.20;;
30763;SDS011;17497;51.476;7.770;2023-08-21T14:17:37;0.13;;;0.13;;
30763;SDS011;17497;51.476;7.770;2023-08-21T14:20:05;0.20;;;0.20;;
30763;SDS011;17497;51.476;7.770;2023-08-21T14:22:33;0.10;;;0.10;;
30763;SDS011;17497;51.476;7.770;2023-08-21T14:25:00;0.10;;;0.10;;
30763;SDS011;17497;51.476;7.770;2023-08-21T14:27:27;0.10;;;0.10;;
30763;SDS011;17497;51.476;7.770;2023-08-21T14:29:54;0.20;;;0.20;;
30763;SDS011;17497;51.476;7.770;2023-08-21T14:34:48;0.20;;;0.20;;
30763;SDS011;17497;51.476;7.770;2023-08-21T14:37:15;0.20;;;0.20;;
30763;SDS011;17497;51.476;7.770;2023-08-21T14:39:42;0.15;;;0.15;;
30763;SDS011;17497;51.476;7.770;2023-08-21T14:42:13;0.10;;;0.10;;
30763;SDS011;17497;51.476;7.770;2023-08-21T14:44:40;0.20;;;0.20;;
30763;SDS011;17497;51.476;7.770;2023-08-21T14:49:34;0.20;;;0.20;;
30763;SDS011;17497;51.476;7.770;2023-08-21T14:52:01;0.20;;;0.20;;
30763;SDS011;17497;51.476;7.770;2023-08-21T14:56:55;0.20;;;0.20;;
30763;SDS011;17497;51.476;7.770;2023-08-21T14:59:22;0.20;;;0.20;;
30763;SDS011;17497;51.476;7.770;2023-08-21T15:01:48;0.20;;;0.20;;
30763;SDS011;17497;51.476;7.770;2023-08-21T15:04:15;0.20;;;0.20;;
30763;SDS011;17497;51.476;7.770;2023-08-21T15:06:42;0.20;;;0.20;;
30763;SDS011;17497;51.476;7.770;2023-08-21T15:09:09;0.20;;;0.20;;
30763;SDS011;17497;51.476;7.770;2023-08-21T15:11:36;0.20;;;0.20;;
30763;SDS011;17497;51.476;7.770;2023-08-21T15:14:09;0.20;;;0.20;;
30763;SDS011;17497;51.476;7.770;2023-08-21T15:16:40;0.20;;;0.20;;
30763;SDS011;17497;51.476;7.770;2023-08-21T15:19:07;0.20;;;0.20;;
30763;SDS011;17497;51.476;7.770;2023-08-21T15:24:00;0.20;;;0.20;;
30763;SDS011;17497;51.476;7.770;2023-08-21T15:26:30;0.20;;;0.20;;
30763;SDS011;17497;51.476;7.770;2023-08-21T15:28:58;0.20;;;0.20;;
30763;SDS011;17497;51.476;7.770;2023-08-21T15:31:26;0.20;;;0.20;;
30763;SDS011;17497;51.476;7.770;2023-08-21T15:33:53;0.15;;;0.15;;
30763;SDS011;17497;51.476;7.770;2023-08-21T15:36:26;0.20;;;0.20;;
30763;SDS011;17497;51.476;7.770;2023-08-21T15:39:04;0.20;;;0.20;;
30763;SDS011;17497;51.476;7.770;2023-08-21T15:41:31;0.13;;;0.13;;
30763;SDS011;17497;51.476;7.770;2023-08-21T15:44:01;0.20;;;0.20;;
30763;SDS011;17497;51.476;7.770;2023-08-21T15:46:31;0.10;;;0.10;;
30763;SDS011;17497;51.476;7.770;2023-08-21T15:49:00;0.10;;;0.10;;
30763;SDS011;17497;51.476;7.770;2023-08-21T15:51:30;0.20;;;0.20;;